Terminal Aerodrome Forecast
Issued by NWS Detroit/Pontiac, MI

Home | Current Version | Previous Version | Text Only | Print | Product List | Glossary On
Versions: 1 2 3 4 5 6 7 8 9 10 11 12 13 14 15 16 17 18 19 20 21 22 23 24
000
FTUS43 KDTX 212332
TAFFNT
TAF
KFNT 212332Z 2200/2224 19008KT P6SM SCT150
     FM220200 19008KT P6SM OVC150
     FM220800 20011KT P6SM SCT025 OVC035
     FM221000 20011KT P6SM OVC025 WS015/22045KT PROB30 2211/2215 4SM
      -FZRA OVC018
     FM221500 22012KT 4SM -RA BR OVC012 WS015/22045KT
     FM221800 22014G24KT 5SM -RA BR OVC012 WS020/24045KT=

USA.gov is the U.S. government's official web portal to all federal, state and local government web resources and services.